Time;durP1;ratioP1;P1;durP2;ratioP2;P2;SDS_P1;SDS_P2;PMS_P1;PMS_P2;Temp;Humidity;BMP_temperature;BMP_pressure;BME280_temperature;BME280_humidity;BME280_pressure;Samples;Min_cycle;Max_cycle;Signal;HPM_P1;HPM_P2
2021/05/07 00:00:59;;;;;;;1.87;1.17;;;9.50;47.90;;;;;;5030538;28;20443;-75
2021/05/07 00:03:26;;;;;;;1.60;1.10;;;9.60;47.60;;;;;;5030975;28;20451;-75
2021/05/07 00:05:56;;;;;;;1.60;1.37;;;9.60;47.90;;;;;;5029410;28;20502;-75
2021/05/07 00:08:26;;;;;;;1.57;1.23;;;9.60;48.00;;;;;;5030686;28;20417;-74
2021/05/07 00:10:53;;;;;;;1.60;1.10;;;9.60;48.10;;;;;;5030802;28;20466;-75
2021/05/07 00:13:19;;;;;;;1.50;1.20;;;9.60;48.60;;;;;;5029398;28;20927;-75
2021/05/07 00:15:45;;;;;;;1.93;1.50;;;9.60;48.70;;;;;;5029416;28;20443;-75
2021/05/07 00:18:11;;;;;;;2.33;2.00;;;9.70;49.40;;;;;;5045848;28;20973;-74
2021/05/07 00:20:36;;;;;;;1.67;1.10;;;9.70;49.40;;;;;;5045579;28;20550;-75
2021/05/07 00:23:02;;;;;;;1.97;1.60;;;9.60;49.60;;;;;;5031907;28;20195;-74
2021/05/07 00:25:27;;;;;;;1.57;1.10;;;9.60;50.00;;;;;;5033991;28;20204;-75
2021/05/07 00:28:01;;;;;;;1.70;1.23;;;9.60;50.60;;;;;;5034126;28;20180;-74
2021/05/07 00:30:27;;;;;;;5.07;1.57;;;9.50;50.80;;;;;;5049249;28;20209;-74
2021/05/07 00:32:53;;;;;;;1.80;1.37;;;9.50;50.80;;;;;;5034431;28;20418;-74
2021/05/07 00:35:18;;;;;;;1.90;1.20;;;9.50;50.80;;;;;;5033974;28;20442;-74
2021/05/07 00:37:44;;;;;;;1.87;1.43;;;9.50;50.40;;;;;;5033926;28;20417;-76
2021/05/07 00:40:10;;;;;;;1.77;0.90;;;9.50;50.30;;;;;;5033997;28;20176;-76
2021/05/07 00:42:36;;;;;;;3.33;1.50;;;9.50;49.80;;;;;;5033873;28;20195;-76
2021/05/07 00:45:02;;;;;;;1.67;1.20;;;9.50;49.50;;;;;;5048857;28;20465;-75
2021/05/07 00:47:27;;;;;;;2.50;1.30;;;9.40;49.30;;;;;;5033696;28;20320;-76
2021/05/07 00:49:54;;;;;;;1.37;1.00;;;9.50;49.30;;;;;;5033215;28;20472;-76
2021/05/07 00:52:20;;;;;;;1.30;1.10;;;9.50;48.60;;;;;;5033813;28;20211;-76
2021/05/07 00:54:45;;;;;;;1.80;0.80;;;9.50;48.00;;;;;;5032189;28;21034;-75
2021/05/07 00:57:12;;;;;;;2.43;1.30;;;9.40;47.80;;;;;;5033529;28;20407;-75
2021/05/07 00:59:38;;;;;;;2.43;1.27;;;9.40;48.20;;;;;;5033185;28;20934;-75
2021/05/07 01:02:03;;;;;;;2.50;1.20;;;9.40;47.70;;;;;;5033297;28;20421;-75
2021/05/07 01:04:29;;;;;;;1.80;1.40;;;9.30;47.00;;;;;;5033296;28;20230;-75
2021/05/07 01:06:55;;;;;;;1.43;1.07;;;9.30;48.00;;;;;;5048829;28;20212;-75
2021/05/07 01:09:20;;;;;;;2.70;0.90;;;9.20;48.40;;;;;;5031660;28;20466;-73
2021/05/07 01:11:46;;;;;;;3.38;1.02;;;9.20;48.20;;;;;;5032708;28;20394;-74
2021/05/07 01:14:12;;;;;;;1.40;0.93;;;9.20;48.60;;;;;;5031873;28;20490;-74
2021/05/07 01:16:38;;;;;;;2.90;1.17;;;9.30;48.10;;;;;;5033089;28;20774;-74
2021/05/07 01:19:04;;;;;;;1.83;1.20;;;9.30;48.20;;;;;;5033338;28;20179;-74
2021/05/07 01:21:32;;;;;;;2.37;1.40;;;9.20;48.20;;;;;;5033251;28;20180;-74
2021/05/07 01:23:57;;;;;;;1.50;1.03;;;9.20;48.70;;;;;;5032949;28;20485;-74
2021/05/07 01:26:23;;;;;;;1.87;1.03;;;9.10;49.10;;;;;;5048365;28;20417;-74
2021/05/07 01:28:48;;;;;;;1.83;1.40;;;9.20;49.60;;;;;;5033035;28;20255;-74
2021/05/07 01:31:14;;;;;;;2.00;1.50;;;9.20;49.40;;;;;;5033031;28;20226;-74
2021/05/07 01:33:40;;;;;;;1.60;1.30;;;9.20;48.80;;;;;;5033015;28;20264;-74
2021/05/07 01:36:06;;;;;;;1.97;1.23;;;9.20;49.20;;;;;;5032964;28;20187;-74
2021/05/07 01:38:32;;;;;;;2.83;1.17;;;9.20;49.30;;;;;;5032969;28;20427;-74
2021/05/07 01:40:58;;;;;;;1.50;1.20;;;9.30;49.30;;;;;;5032811;28;20432;-74
2021/05/07 01:43:24;;;;;;;1.90;1.37;;;9.20;50.00;;;;;;5032685;28;20418;-74
2021/05/07 01:45:50;;;;;;;6.83;1.60;;;9.20;49.60;;;;;;5032489;28;20211;-74
2021/05/07 01:48:16;;;;;;;2.90;1.40;;;9.20;49.70;;;;;;5032723;28;20179;-74
2021/05/07 01:50:44;;;;;;;1.90;1.33;;;9.20;49.90;;;;;;5032387;28;20535;-74
2021/05/07 01:53:11;;;;;;;2.67;1.10;;;9.20;49.90;;;;;;5031131;28;20513;-74
2021/05/07 01:55:40;;;;;;;2.50;1.30;;;9.20;50.20;;;;;;5032453;28;20839;-74
2021/05/07 01:58:07;;;;;;;1.47;1.07;;;9.10;51.00;;;;;;5032485;28;20465;-74
2021/05/07 02:00:33;;;;;;;2.33;1.10;;;9.10;51.10;;;;;;5030821;28;20490;-74
2021/05/07 02:03:03;;;;;;;2.23;1.00;;;9.10;51.50;;;;;;5032379;28;21007;-74
2021/05/07 02:05:32;;;;;;;2.07;1.50;;;9.10;51.60;;;;;;5047599;28;20484;-74
2021/05/07 02:07:58;;;;;;;3.03;1.40;;;9.10;51.60;;;;;;5032226;28;20418;-74
2021/05/07 02:10:25;;;;;;;2.60;1.37;;;9.10;51.60;;;;;;5031905;28;20467;-74
2021/05/07 02:12:53;;;;;;;2.30;1.53;;;9.10;51.60;;;;;;5030875;28;20854;-74
2021/05/07 02:15:20;;;;;;;2.50;1.30;;;9.10;51.60;;;;;;5030676;28;20447;-74
2021/05/07 02:17:46;;;;;;;3.10;1.60;;;9.10;51.60;;;;;;5030707;28;20489;-74
2021/05/07 02:20:14;;;;;;;1.60;1.20;;;9.10;51.60;;;;;;5031931;28;20479;-74
2021/05/07 02:22:40;;;;;;;2.10;1.00;;;9.00;51.50;;;;;;5030907;28;20418;-74
2021/05/07 02:25:07;;;;;;;1.80;1.00;;;9.00;51.50;;;;;;5031447;28;20951;-74
2021/05/07 02:27:33;;;;;;;1.90;1.30;;;9.00;50.20;;;;;;5032496;28;20507;-75
2021/05/07 02:29:58;;;;;;;1.93;1.20;;;9.00;50.30;;;;;;5047602;28;20578;-74
2021/05/07 02:32:24;;;;;;;1.53;1.00;;;9.00;50.10;;;;;;5032771;28;20571;-75
2021/05/07 02:34:51;;;;;;;1.40;1.00;;;9.00;50.10;;;;;;5047788;28;20663;-75
2021/05/07 02:37:16;;;;;;;2.33;1.20;;;9.00;50.10;;;;;;5047695;28;20502;-74
2021/05/07 02:39:42;;;;;;;2.60;1.43;;;9.10;49.20;;;;;;5032240;28;20513;-75
2021/05/07 02:42:07;;;;;;;1.17;0.83;;;9.10;49.40;;;;;;5033080;28;20211;-74
2021/05/07 02:44:33;;;;;;;1.60;1.10;;;9.10;49.10;;;;;;5031997;28;20298;-74
2021/05/07 02:47:03;;;;;;;1.37;0.80;;;9.00;49.00;;;;;;5046682;28;20187;-75
2021/05/07 02:49:30;;;;;;;1.57;0.70;;;9.00;48.50;;;;;;5031215;28;20203;-74
2021/05/07 02:51:56;;;;;;;1.73;0.90;;;9.00;48.80;;;;;;5031343;28;20410;-74
2021/05/07 02:54:22;;;;;;;1.30;1.00;;;9.00;49.10;;;;;;5031414;28;20489;-74
2021/05/07 02:56:47;;;;;;;1.47;0.73;;;9.00;48.80;;;;;;5031232;28;20419;-75
2021/05/07 02:59:15;;;;;;;1.67;0.90;;;8.90;48.50;;;;;;5031684;28;20183;-74
2021/05/07 03:01:42;;;;;;;2.93;0.90;;;8.90;48.30;;;;;;5031274;28;20254;-74
2021/05/07 03:04:07;;;;;;;2.80;1.07;;;8.90;48.40;;;;;;5031315;28;20482;-74
2021/05/07 03:06:33;;;;;;;1.50;0.90;;;8.90;48.60;;;;;;5031205;28;20406;-74
2021/05/07 03:08:59;;;;;;;1.20;0.80;;;8.90;48.80;;;;;;5031308;28;20172;-74
2021/05/07 03:11:25;;;;;;;1.13;0.70;;;8.90;48.80;;;;;;5031207;28;20172;-74
2021/05/07 03:13:50;;;;;;;1.33;0.87;;;9.00;49.00;;;;;;5031038;28;20805;-74
2021/05/07 03:16:16;;;;;;;2.40;1.20;;;8.90;49.10;;;;;;5031249;28;20248;-74
2021/05/07 03:18:41;;;;;;;1.30;0.73;;;9.00;49.30;;;;;;5030987;28;20190;-74
2021/05/07 03:21:07;;;;;;;1.20;0.70;;;9.00;48.90;;;;;;5029647;28;20591;-74
2021/05/07 03:23:33;;;;;;;1.57;0.97;;;8.90;48.50;;;;;;5031016;28;20177;-74
2021/05/07 03:25:59;;;;;;;1.50;0.80;;;8.90;48.50;;;;;;5047731;28;20217;-74
2021/05/07 03:28:24;;;;;;;1.20;0.63;;;8.90;48.60;;;;;;5032256;28;20923;-74
2021/05/07 03:30:50;;;;;;;1.10;0.50;;;8.90;48.30;;;;;;5030700;28;20676;-75
2021/05/07 03:33:15;;;;;;;1.87;0.93;;;8.80;48.50;;;;;;5032396;28;20171;-74
2021/05/07 03:35:41;;;;;;;1.47;1.00;;;8.80;48.70;;;;;;5032459;28;20204;-74
2021/05/07 03:38:06;;;;;;;1.40;0.67;;;8.80;48.60;;;;;;5032855;28;20203;-74
2021/05/07 03:40:32;;;;;;;1.93;1.23;;;8.70;48.30;;;;;;5033716;28;20652;-75
2021/05/07 03:42:58;;;;;;;2.60;1.10;;;8.70;48.50;;;;;;5032935;28;20657;-74
2021/05/07 03:45:23;;;;;;;2.00;1.00;;;8.70;48.60;;;;;;5047280;28;20211;-74
2021/05/07 03:47:49;;;;;;;1.50;0.90;;;8.70;48.80;;;;;;5031980;28;20237;-74
2021/05/07 03:50:15;;;;;;;1.47;0.80;;;8.70;49.20;;;;;;5031808;28;20203;-75
2021/05/07 03:52:41;;;;;;;1.43;1.10;;;8.70;48.90;;;;;;5032205;28;20196;-74
2021/05/07 03:55:09;;;;;;;2.20;1.00;;;8.60;49.10;;;;;;5032469;28;20950;-75
2021/05/07 03:57:35;;;;;;;1.80;0.80;;;8.60;49.30;;;;;;5033422;28;20414;-74
2021/05/07 04:00:01;;;;;;;1.60;1.00;;;8.60;49.80;;;;;;5035768;28;20418;-75
2021/05/07 04:02:26;;;;;;;3.27;0.80;;;8.60;50.00;;;;;;5035957;28;20175;-75
2021/05/07 04:04:52;;;;;;;2.00;1.07;;;8.60;50.10;;;;;;5035681;28;20464;-75
2021/05/07 04:07:18;;;;;;;1.70;1.03;;;8.60;49.80;;;;;;5035872;28;20209;-74
2021/05/07 04:14:56;;;;;;;1.77;0.90;;;8.60;51.10;;;;;;5034160;28;20434;-74
2021/05/07 04:17:21;;;;;;;1.60;1.17;;;8.60;51.10;;;;;;5034162;28;20421;-74
2021/05/07 04:19:47;;;;;;;1.60;0.93;;;8.60;51.00;;;;;;5033764;28;20206;-74
2021/05/07 04:22:13;;;;;;;1.93;1.23;;;8.70;51.30;;;;;;5034129;28;20543;-74
2021/05/07 04:24:38;;;;;;;2.30;1.00;;;8.70;51.20;;;;;;5049216;28;20256;-74
2021/05/07 04:27:04;;;;;;;1.57;1.07;;;8.70;51.20;;;;;;5034034;28;20176;-74
2021/05/07 04:29:30;;;;;;;2.30;0.93;;;8.70;51.90;;;;;;5033800;28;20669;-74
2021/05/07 04:31:57;;;;;;;2.83;1.23;;;8.80;52.00;;;;;;5034019;28;20168;-74
2021/05/07 04:34:23;;;;;;;2.07;1.43;;;8.80;51.30;;;;;;5049189;28;20222;-74
2021/05/07 04:36:48;;;;;;;1.97;1.03;;;8.70;51.20;;;;;;5033873;28;20422;-74
2021/05/07 04:39:14;;;;;;;1.67;0.87;;;8.70;51.30;;;;;;5033799;28;20597;-74
2021/05/07 04:41:39;;;;;;;1.50;1.20;;;8.70;51.20;;;;;;5033954;28;20261;-74
2021/05/07 04:44:05;;;;;;;1.77;1.23;;;8.60;51.10;;;;;;5039824;28;20332;-73
2021/05/07 04:46:31;;;;;;;1.57;1.03;;;8.60;51.90;;;;;;5039150;28;20195;-73
2021/05/07 04:48:57;;;;;;;2.13;1.20;;;8.60;51.70;;;;;;5039406;28;20452;-72
2021/05/07 04:51:23;;;;;;;1.20;0.60;;;8.50;51.10;;;;;;5057076;28;20551;-73
2021/05/07 04:53:48;;;;;;;1.50;0.67;;;8.30;50.70;;;;;;5057695;28;20416;-73
2021/05/07 04:56:14;;;;;;;1.20;0.67;;;8.10;50.00;;;;;;5057576;28;20166;-73
2021/05/07 04:58:40;;;;;;;1.20;0.60;;;8.00;50.00;;;;;;5055760;28;20526;-73
2021/05/07 05:01:06;;;;;;;1.10;0.50;;;7.90;49.50;;;;;;5048043;28;20449;-74
2021/05/07 05:03:31;;;;;;;1.10;0.60;;;7.80;48.40;;;;;;5036980;28;20186;-72
2021/05/07 05:05:57;;;;;;;2.80;0.80;;;7.70;48.50;;;;;;5033183;28;20502;-72
2021/05/07 05:08:24;;;;;;;1.10;0.50;;;7.60;48.70;;;;;;5033151;28;20189;-73
2021/05/07 05:10:56;;;;;;;1.00;0.40;;;7.50;47.10;;;;;;5033101;28;20245;-72
2021/05/07 05:13:23;;;;;;;1.40;0.57;;;7.30;47.80;;;;;;5033228;28;20181;-71
2021/05/07 05:15:50;;;;;;;2.37;0.87;;;7.10;48.00;;;;;;5033540;28;20564;-72
2021/05/07 05:18:29;;;;;;;1.80;0.60;;;7.00;48.40;;;;;;5056809;28;20455;-71
2021/05/07 05:20:57;;;;;;;1.15;0.60;;;7.00;49.80;;;;;;5031534;28;20235;-72
2021/05/07 05:23:23;;;;;;;1.10;0.60;;;7.00;48.20;;;;;;5032903;28;20178;-72
2021/05/07 05:25:49;;;;;;;1.50;0.60;;;6.90;48.40;;;;;;5047995;28;20241;-72
2021/05/07 05:28:15;;;;;;;1.00;0.40;;;7.00;48.10;;;;;;5032953;28;20216;-73
2021/05/07 05:30:40;;;;;;;1.30;0.70;;;7.00;48.70;;;;;;5032667;28;20208;-73
2021/05/07 05:33:06;;;;;;;1.10;0.60;;;7.00;48.20;;;;;;5032960;28;20166;-73
2021/05/07 05:35:31;;;;;;;1.10;0.50;;;6.90;46.20;;;;;;5032804;28;20671;-74
2021/05/07 05:37:57;;;;;;;1.00;0.40;;;6.90;47.00;;;;;;5032774;28;20661;-73
2021/05/07 05:40:22;;;;;;;1.17;0.80;;;6.80;46.70;;;;;;5032626;28;20188;-76
2021/05/07 05:42:48;;;;;;;1.27;0.50;;;6.80;47.00;;;;;;5032758;28;20186;-73
2021/05/07 05:45:14;;;;;;;1.00;0.50;;;6.70;48.00;;;;;;5032474;28;20220;-74
2021/05/07 05:47:40;;;;;;;1.30;0.50;;;6.70;48.10;;;;;;5031479;28;20210;-73
2021/05/07 05:50:06;;;;;;;1.83;0.70;;;6.80;48.50;;;;;;5032292;28;20205;-74
2021/05/07 05:52:32;;;;;;;1.23;0.57;;;6.80;49.30;;;;;;5032753;28;20186;-73
2021/05/07 05:54:58;;;;;;;1.53;0.60;;;6.80;48.50;;;;;;5032603;28;20447;-73
2021/05/07 05:57:24;;;;;;;1.20;0.70;;;6.90;49.20;;;;;;5032378;28;20261;-73
2021/05/07 05:59:50;;;;;;;1.53;0.97;;;6.90;49.70;;;;;;5032120;28;20504;-73
2021/05/07 06:02:19;;;;;;;1.43;0.70;;;6.90;49.00;;;;;;5032783;28;20209;-73
2021/05/07 06:04:45;;;;;;;1.30;0.70;;;6.90;48.80;;;;;;5030976;28;20568;-73
2021/05/07 06:07:10;;;;;;;1.40;0.70;;;6.90;48.90;;;;;;5032016;28;20518;-73
2021/05/07 06:09:36;;;;;;;1.10;0.50;;;7.00;48.50;;;;;;5031765;28;20204;-73
2021/05/07 06:12:06;;;;;;;3.30;0.93;;;7.00;48.10;;;;;;5030868;28;20178;-73
2021/05/07 06:14:32;;;;;;;2.33;0.50;;;7.00;47.80;;;;;;5032215;28;20197;-73
2021/05/07 06:16:58;;;;;;;1.10;0.50;;;7.10;47.60;;;;;;5032160;28;20536;-73
2021/05/07 06:19:23;;;;;;;1.20;0.70;;;7.20;47.10;;;;;;5031857;28;20492;-73
2021/05/07 06:21:49;;;;;;;1.30;0.47;;;7.20;45.50;;;;;;5046413;28;20190;-73
2021/05/07 06:24:15;;;;;;;1.10;0.60;;;7.20;46.00;;;;;;5050761;28;20206;-73
2021/05/07 06:26:40;;;;;;;1.10;0.60;;;7.30;45.10;;;;;;5062313;28;20208;-77
2021/05/07 06:29:06;;;;;;;2.53;0.80;;;7.30;45.10;;;;;;5071692;28;20466;-73
2021/05/07 06:31:32;;;;;;;2.30;0.60;;;7.30;45.10;;;;;;5064945;28;20181;-73
2021/05/07 06:33:57;;;;;;;1.33;0.90;;;7.30;45.00;;;;;;5051618;28;20197;-74
2021/05/07 06:36:23;;;;;;;1.07;0.47;;;7.40;45.10;;;;;;5051679;28;20204;-75
2021/05/07 06:38:48;;;;;;;1.20;0.57;;;7.40;44.70;;;;;;5031649;28;20209;-74
2021/05/07 06:41:15;;;;;;;1.50;1.00;;;7.40;44.30;;;;;;5030452;28;20282;-74
2021/05/07 06:43:40;;;;;;;1.10;0.63;;;7.50;43.70;;;;;;5031862;28;20202;-73
2021/05/07 06:46:06;;;;;;;4.10;2.97;;;7.50;43.50;;;;;;5047169;28;20463;-73
2021/05/07 06:48:31;;;;;;;2.17;1.10;;;7.40;42.20;;;;;;5051568;28;20265;-74
2021/05/07 06:50:57;;;;;;;1.30;0.70;;;7.50;43.30;;;;;;5049879;28;20217;-73
2021/05/07 06:53:22;;;;;;;1.30;0.77;;;7.50;42.90;;;;;;5050836;28;20215;-74
2021/05/07 06:55:48;;;;;;;1.30;0.60;;;7.60;42.70;;;;;;5049857;28;20199;-72
2021/05/07 06:58:14;;;;;;;1.20;0.67;;;7.60;42.60;;;;;;5047712;28;20184;-72
2021/05/07 07:00:39;;;;;;;1.40;0.70;;;7.50;42.50;;;;;;5045789;28;20657;-72
2021/05/07 07:03:05;;;;;;;1.10;0.60;;;7.50;42.50;;;;;;5047761;28;20197;-72
2021/05/07 07:05:30;;;;;;;1.10;0.50;;;7.50;41.60;;;;;;5046633;28;20209;-72
2021/05/07 07:07:56;;;;;;;1.30;0.67;;;7.50;41.90;;;;;;5047217;28;20182;-72
2021/05/07 07:10:22;;;;;;;1.40;0.80;;;7.40;43.20;;;;;;5046960;28;20267;-72
2021/05/07 07:12:47;;;;;;;1.40;0.57;;;7.50;44.00;;;;;;5046420;28;20243;-72
2021/05/07 07:15:13;;;;;;;1.10;0.50;;;7.50;43.30;;;;;;5047434;28;20202;-73
2021/05/07 07:17:39;;;;;;;1.50;0.70;;;7.60;42.60;;;;;;5047485;28;20277;-72
2021/05/07 07:20:05;;;;;;;1.20;0.57;;;7.60;43.80;;;;;;5046356;28;20523;-72
2021/05/07 07:22:31;;;;;;;2.13;0.63;;;7.70;43.20;;;;;;5039172;28;20206;-72
2021/05/07 07:24:56;;;;;;;1.20;0.57;;;7.80;43.90;;;;;;5043989;28;20789;-72
2021/05/07 07:27:22;;;;;;;1.10;0.50;;;7.80;42.40;;;;;;5046325;28;20204;-72
2021/05/07 07:29:47;;;;;;;1.70;0.90;;;7.90;40.50;;;;;;5046956;28;20225;-72
2021/05/07 07:32:14;;;;;;;1.20;0.70;;;7.90;40.50;;;;;;5050116;28;20186;-72
2021/05/07 07:34:40;;;;;;;1.30;0.77;;;7.90;40.80;;;;;;5052983;28;20210;-73
2021/05/07 07:37:06;;;;;;;1.60;0.70;;;8.00;40.60;;;;;;5052791;28;20455;-72
2021/05/07 07:39:31;;;;;;;1.87;0.60;;;7.90;40.50;;;;;;5052973;28;20635;-72
2021/05/07 07:41:57;;;;;;;1.67;0.80;;;8.00;40.60;;;;;;5053454;28;20253;-72
2021/05/07 07:44:23;;;;;;;1.87;1.07;;;8.00;40.60;;;;;;5053583;28;20291;-72
2021/05/07 07:46:48;;;;;;;1.50;0.77;;;8.00;40.60;;;;;;5054554;28;20198;-72
2021/05/07 07:49:14;;;;;;;1.20;0.70;;;8.00;40.20;;;;;;5063680;28;20522;-71
2021/05/07 07:51:39;;;;;;;1.57;0.90;;;8.00;40.60;;;;;;5076931;28;20205;-72
2021/05/07 07:54:09;;;;;;;1.30;0.80;;;8.00;40.60;;;;;;5053566;28;20199;-72
2021/05/07 07:56:35;;;;;;;1.70;0.80;;;8.00;39.70;;;;;;5036161;28;20304;-71
2021/05/07 07:59:01;;;;;;;1.20;0.70;;;8.00;40.10;;;;;;5054853;28;20503;-71
2021/05/07 08:01:27;;;;;;;1.50;0.77;;;8.00;40.60;;;;;;5054830;28;20420;-72
2021/05/07 08:03:52;;;;;;;1.30;0.80;;;8.10;40.70;;;;;;5056546;28;20631;-71
2021/05/07 08:06:18;;;;;;;1.40;0.70;;;8.10;40.20;;;;;;5054474;28;20182;-71
2021/05/07 08:08:43;;;;;;;1.40;0.63;;;8.10;39.70;;;;;;5055951;28;20178;-71
2021/05/07 08:11:09;;;;;;;1.10;0.50;;;8.10;39.90;;;;;;5055718;28;20214;-71
2021/05/07 08:13:34;;;;;;;1.20;0.80;;;8.00;39.50;;;;;;5054118;28;20459;-71
2021/05/07 08:16:00;;;;;;;1.67;1.03;;;8.00;39.60;;;;;;5056721;28;20190;-71
2021/05/07 08:18:25;;;;;;;4.27;1.20;;;7.90;39.70;;;;;;5075889;28;20193;-71
2021/05/07 08:20:51;;;;;;;1.50;1.00;;;7.90;40.40;;;;;;5063577;28;20271;-71
2021/05/07 08:23:17;;;;;;;1.40;0.93;;;7.80;40.00;;;;;;5054629;28;20183;-70
2021/05/07 08:25:42;;;;;;;1.63;1.10;;;7.80;40.40;;;;;;5054719;28;20569;-72
2021/05/07 08:28:08;;;;;;;1.50;1.13;;;7.80;40.40;;;;;;5053791;28;20194;-71
2021/05/07 08:30:33;;;;;;;1.90;1.20;;;7.90;40.50;;;;;;5056363;28;20225;-72
2021/05/07 08:32:59;;;;;;;1.93;1.73;;;7.90;40.30;;;;;;5060231;28;20182;-72
2021/05/07 08:35:46;;;;;;;3.20;1.40;;;8.00;41.30;;;;;;5057259;28;20219;-72
2021/05/07 08:38:12;;;;;;;1.70;1.10;;;8.10;40.70;;;;;;5049885;28;20179;-72
2021/05/07 08:40:39;;;;;;;2.90;1.00;;;8.10;39.50;;;;;;5057793;28;20419;-72
2021/05/07 08:43:08;;;;;;;2.10;1.20;;;8.10;40.30;;;;;;5056715;28;20185;-73
2021/05/07 08:45:39;;;;;;;3.50;2.07;;;8.00;40.40;;;;;;5056268;28;20460;-72
2021/05/07 08:48:05;;;;;;;1.50;1.10;;;8.00;40.30;;;;;;5055008;28;20494;-73
2021/05/07 08:50:31;;;;;;;1.40;1.00;;;8.10;40.70;;;;;;5054219;28;20479;-71
2021/05/07 08:52:57;;;;;;;1.73;0.87;;;8.10;40.70;;;;;;5055378;28;20413;-71
2021/05/07 08:55:22;;;;;;;1.30;0.83;;;8.10;40.90;;;;;;5043372;28;20282;-70
2021/05/07 08:57:48;;;;;;;1.27;0.80;;;8.10;39.50;;;;;;5053949;28;20555;-71
2021/05/07 09:00:14;;;;;;;2.10;1.70;;;8.20;40.80;;;;;;5053619;28;20533;-71
2021/05/07 09:02:40;;;;;;;2.23;1.17;;;8.30;40.80;;;;;;5055087;28;20190;-72
2021/05/07 09:05:06;;;;;;;2.53;1.30;;;8.30;40.40;;;;;;5055564;28;20453;-71
2021/05/07 09:07:33;;;;;;;1.30;0.80;;;8.40;40.90;;;;;;5055103;28;20191;-71
2021/05/07 09:10:01;;;;;;;2.17;1.60;;;8.70;39.50;;;;;;5054069;28;21008;-71
2021/05/07 09:12:40;;;;;;;2.70;1.70;;;8.80;39.10;;;;;;5054486;28;20420;-71
2021/05/07 09:15:09;;;;;;;1.90;1.70;;;9.20;40.60;;;;;;5052521;28;20435;-71
2021/05/07 09:17:36;;;;;;;3.13;1.83;;;9.70;38.30;;;;;;5049866;28;20487;-71
2021/05/07 09:20:12;;;;;;;2.13;1.93;;;10.20;34.80;;;;;;5045346;28;20972;-71
2021/05/07 09:22:40;;;;;;;4.20;2.00;;;10.30;32.30;;;;;;5049872;28;20440;-71
2021/05/07 09:25:13;;;;;;;2.67;1.90;;;10.40;32.20;;;;;;5047911;28;20457;-71
2021/05/07 09:27:40;;;;;;;1.53;1.20;;;10.30;32.40;;;;;;5056712;28;20423;-71
2021/05/07 09:30:10;;;;;;;1.83;1.30;;;10.40;32.50;;;;;;5046804;28;20462;-71
2021/05/07 09:32:36;;;;;;;1.80;1.60;;;10.50;33.80;;;;;;5047831;28;20566;-71
2021/05/07 09:35:13;;;;;;;4.93;2.77;;;10.90;32.80;;;;;;5047435;28;20517;-72
2021/05/07 09:37:40;;;;;;;5.70;2.67;;;11.10;30.60;;;;;;5051684;28;20169;-71
2021/05/07 09:40:17;;;;;;;2.90;2.20;;;11.20;30.60;;;;;;5050851;28;20492;-71
2021/05/07 09:42:43;;;;;;;3.10;2.10;;;11.40;29.70;;;;;;5049794;28;20451;-72
2021/05/07 09:45:24;;;;;;;3.37;2.77;;;11.80;28.20;;;;;;5050177;28;21002;-72
2021/05/07 09:47:54;;;;;;;2.77;2.57;;;12.00;26.70;;;;;;5051256;28;20435;-71
2021/05/07 09:50:32;;;;;;;3.83;3.53;;;11.90;26.20;;;;;;5048860;28;20461;-71
2021/05/07 09:53:17;;;;;;;2.87;2.60;;;12.20;25.00;;;;;;5078044;22;20516;-71
2021/05/07 09:55:44;;;;;;;4.50;3.60;;;12.20;26.50;;;;;;5044682;28;20437;-72
2021/05/07 09:58:10;;;;;;;2.90;2.53;;;12.50;28.40;;;;;;5053488;28;20455;-72
2021/05/07 10:00:36;;;;;;;2.80;2.50;;;13.10;27.40;;;;;;5054189;28;20427;-73
2021/05/07 10:03:02;;;;;;;2.90;2.70;;;13.50;25.50;;;;;;5053937;28;20866;-71
2021/05/07 10:05:28;;;;;;;5.00;3.17;;;13.80;24.00;;;;;;5054418;28;20442;-72
2021/05/07 10:07:55;;;;;;;4.50;3.97;;;14.10;23.50;;;;;;5055005;28;20171;-72
2021/05/07 10:10:29;;;;;;;4.30;4.00;;;14.10;21.50;;;;;;5053863;28;20582;-71
2021/05/07 10:12:57;;;;;;;5.33;3.60;;;14.00;20.20;;;;;;5037830;28;20431;-70
2021/05/07 10:15:30;;;;;;;4.43;4.13;;;13.80;25.20;;;;;;5054982;28;20433;-73
2021/05/07 10:17:56;;;;;;;3.90;3.60;;;13.50;16.70;;;;;;5056045;28;20432;-71
2021/05/07 10:20:33;;;;;;;4.50;4.07;;;13.40;16.20;;;;;;5057114;28;20544;-72
2021/05/07 10:23:11;;;;;;;4.40;4.00;;;13.40;14.50;;;;;;5056680;28;20535;-73
2021/05/07 10:25:38;;;;;;;5.43;5.07;;;13.60;15.40;;;;;;5056384;28;20869;-73
2021/05/07 10:28:14;;;;;;;4.60;4.20;;;;;;;;;;5056646;28;20820;-71
2021/05/07 10:30:39;;;;;;;5.17;4.77;;;13.70;14.60;;;;;;5056813;28;20456;-74
2021/05/07 10:33:15;;;;;;;5.07;4.67;;;13.30;13.20;;;;;;5057062;28;20447;-72
2021/05/07 10:35:41;;;;;;;5.90;5.50;;;13.40;12.00;;;;;;5055248;28;20575;-71
2021/05/07 10:38:14;;;;;;;5.73;5.33;;;13.30;15.20;;;;;;5056512;28;20413;-71
2021/05/07 10:40:40;;;;;;;5.20;4.90;;;;;;;;;;5055560;28;20468;-73
2021/05/07 10:43:07;;;;;;;4.90;4.60;;;;;;;;;;5056535;28;21068;-72
2021/05/07 10:45:39;;;;;;;5.13;4.60;;;;;;;;;;5056387;28;20413;-72
2021/05/07 10:48:23;;;;;;;4.60;4.30;;;;;;;;;;5056544;28;20416;-72
2021/05/07 10:50:51;;;;;;;4.03;3.83;;;;;;;;;;5053257;28;20475;-73
2021/05/07 10:53:36;;;;;;;6.00;5.60;;;13.50;16.50;;;;;;5052890;28;20965;-72
2021/05/07 10:56:20;;;;;;;6.27;5.37;;;13.30;12.00;;;;;;5048534;28;20439;-73
2021/05/07 10:58:47;;;;;;;7.20;6.00;;;13.20;11.50;;;;;;5052104;28;20429;-73
2021/05/07 11:01:29;;;;;;;6.17;5.77;;;;;;;;;;5043986;28;20539;-72
2021/05/07 11:04:02;;;;;;;6.17;5.77;;;;;;;;;;5037603;28;20459;-73
2021/05/07 11:06:28;;;;;;;5.60;5.10;;;;;;;;;;5041609;28;20476;-72
2021/05/07 11:08:54;;;;;;;6.10;5.60;;;;;;;;;;5044460;28;20427;-72
2021/05/07 11:11:20;;;;;;;6.07;5.67;;;;;;;;;;5051849;28;20864;-72
2021/05/07 11:13:46;;;;;;;5.83;5.43;;;;;;;;;;5050564;28;20794;-73
2021/05/07 11:16:12;;;;;;;6.50;6.20;;;;;;;;;;5051863;28;20914;-73
2021/05/07 11:18:46;;;;;;;6.00;5.63;;;12.20;10.70;;;;;;5041301;28;20805;-72
2021/05/07 11:21:14;;;;;;;6.50;5.97;;;12.40;16.30;;;;;;5036229;28;20527;-72
2021/05/07 11:23:39;;;;;;;6.67;6.17;;;12.40;10.30;;;;;;5052045;28;20516;-72
2021/05/07 11:26:06;;;;;;;6.77;6.37;;;12.30;9.90;;;;;;5052686;28;20455;-74
2021/05/07 11:28:40;;;;;;;5.60;5.30;;;12.10;10.60;;;;;;5050974;28;20236;-73
2021/05/07 11:31:06;;;;;;;6.57;6.07;;;12.20;11.20;;;;;;5051301;28;20455;-72
2021/05/07 11:33:32;;;;;;;6.70;6.30;;;12.50;12.70;;;;;;5051895;28;20532;-73
2021/05/07 11:36:07;;;;;;;6.17;5.77;;;12.30;10.80;;;;;;5051781;28;20185;-73
2021/05/07 11:38:37;;;;;;;6.27;5.87;;;12.10;8.20;;;;;;5052225;28;20415;-75
2021/05/07 11:41:03;;;;;;;6.03;5.70;;;11.80;10.90;;;;;;5041255;28;20457;-75
2021/05/07 11:43:29;;;;;;;6.60;6.20;;;12.00;12.10;;;;;;5034867;28;20426;-73
2021/05/07 11:46:08;;;;;;;6.67;6.27;;;12.40;10.90;;;;;;5041513;28;20478;-73
2021/05/07 11:48:35;;;;;;;6.33;6.03;;;12.70;9.50;;;;;;5047950;28;20448;-72
2021/05/07 11:51:08;;;;;;;7.27;6.77;;;12.80;10.40;;;;;;5053971;28;20456;-74
2021/05/07 11:53:34;;;;;;;6.23;5.90;;;12.90;8.70;;;;;;5052633;28;20430;-71
2021/05/07 11:56:00;;;;;;;6.50;6.20;;;12.80;9.50;;;;;;5045773;28;20425;-72
2021/05/07 11:58:36;;;;;;;8.20;7.60;;;13.00;9.30;;;;;;5051502;28;20424;-72
2021/05/07 12:01:08;;;;;;;6.90;6.40;;;13.50;9.70;;;;;;5052077;28;20289;-72
2021/05/07 12:03:42;;;;;;;7.37;6.97;;;13.80;8.80;;;;;;5051033;28;20479;-71
2021/05/07 12:06:14;;;;;;;7.57;7.07;;;14.10;8.70;;;;;;5050736;28;20425;-71
2021/05/07 12:08:40;;;;;;;7.10;6.77;;;14.20;8.10;;;;;;5050285;28;20429;-71
2021/05/07 12:11:10;;;;;;;12.47;7.70;;;14.30;8.20;;;;;;5049612;28;20456;-71
2021/05/07 12:13:36;;;;;;;8.20;7.80;;;14.20;8.50;;;;;;5050935;28;20262;-71
2021/05/07 12:16:02;;;;;;;7.63;7.23;;;14.10;6.90;;;;;;5049555;28;20496;-70
2021/05/07 12:18:31;;;;;;;7.20;6.90;;;13.50;6.30;;;;;;5047512;28;20456;-71
2021/05/07 12:20:57;;;;;;;8.03;7.53;;;13.10;7.40;;;;;;5029656;28;20179;-73
2021/05/07 12:23:24;;;;;;;7.13;6.83;;;12.70;8.80;;;;;;5050255;28;20433;-71
2021/05/07 12:25:50;;;;;;;6.70;6.40;;;12.70;10.50;;;;;;5042149;28;20449;-72
2021/05/07 12:28:21;;;;;;;7.87;7.40;;;12.80;9.20;;;;;;5050393;28;20917;-71
2021/05/07 12:30:48;;;;;;;8.33;7.73;;;13.00;9.40;;;;;;5051179;28;20297;-73
2021/05/07 12:33:14;;;;;;;8.10;7.70;;;13.20;8.70;;;;;;5050898;28;20447;-72
2021/05/07 12:35:44;;;;;;;8.27;7.87;;;13.40;8.20;;;;;;5049951;28;20493;-72
2021/05/07 12:38:36;;;;;;;8.20;7.80;;;13.40;8.10;;;;;;5038165;28;20516;-70
2021/05/07 12:41:11;;;;;;;7.50;7.10;;;13.50;7.60;;;;;;5043912;28;20432;-71
2021/05/07 12:43:41;;;;;;;7.70;7.30;;;13.60;8.80;;;;;;5050937;28;20925;-73
2021/05/07 12:46:07;;;;;;;8.43;8.03;;;13.80;9.00;;;;;;5050882;28;20432;-74
2021/05/07 12:48:33;;;;;;;7.87;7.47;;;13.90;8.20;;;;;;5051819;28;20428;-73
2021/05/07 12:51:06;;;;;;;8.37;7.77;;;14.10;8.00;;;;;;5051111;28;20966;-73
2021/05/07 12:53:34;;;;;;;8.27;7.87;;;14.20;6.60;;;;;;5051155;28;20490;-71
2021/05/07 12:56:00;;;;;;;8.27;7.87;;;14.20;8.10;;;;;;5049549;28;20463;-70
2021/05/07 12:58:25;;;;;;;8.63;8.23;;;14.20;8.10;;;;;;5051854;28;20456;-74
2021/05/07 13:00:53;;;;;;;9.27;8.77;;;14.30;8.20;;;;;;5050509;28;20434;-74
2021/05/07 13:03:19;;;;;;;8.43;7.90;;;14.20;8.10;;;;;;5050990;28;20300;-72
2021/05/07 13:05:45;;;;;;;8.80;8.40;;;14.20;8.20;;;;;;5054438;28;20546;-75